Terminal Aerodrome Forecast
Issued by NWS Grand Forks, ND

Home | Current Version | Previous Version | Text Only | Print | Product List | Glossary Off
Versions: 1 2 3 4 5 6 7 8 9 10 11 12 13 14 15 16 17 18 19 20 21 22

614
FTUS43 KFGF 231541 AAC
TAFGFK
TAF AMD
KGFK 231541Z 2316/2412 VRB06KT P6SM BKN120
      TEMPO 2316/2317 -SHRA BKN050
     FM231700 VRB06KT P6SM -TSRA BKN040CB
     FM231900 14010KT P6SM BKN090
      TEMPO 2320/2322 2SM TSRA OVC040CB
     FM232200 00000KT P6SM VCTS OVC090CB
     FM232300 22005KT P6SM BKN250
     FM240700 27009KT P6SM FEW250=

USA.gov is the U.S. government's official web portal to all federal, state and local government web resources and services.